x

Sentry Shoal (46131) Wave Buoy

1:00am - Sun 24th Sep 2017 All times are PDT. -7 hours from GMT.

  • Sig Wave height 0.3ft
  • Peak Period 3s
  • Wind
    2mph, 4mph gusts
  • Sea Temp 58°f
  • Air Temp 58°f
  • Sea Pressure 1020.7mb
  • Sentry Shoal
  • Sentry Shoal

More Historic Weather Station data

Upgrade to MSW Pro to gain access to the past 30 days of data for over 8000 Wavebouys and Weather Stations around the globe.

Join

Comparision Forecast

View Surf forecast
   
Sun 09/24 1:00am 0.3ft 3s 2 4 mph 1020.7mb 58f 58f
12:00am 0.3ft 2s 2 4 mph 1020.5mb 58f 58f
Sat 09/23 11:00pm 0.3ft 2s 2 2 mph 1019.9mb 59f 59f
10:00pm  -  2s  -  2 mph 1019.5mb 60f 58f
9:00pm 0.3ft 2s  -  2 mph 1019.5mb 60f 59f
8:00pm 0.3ft 2s 2 2 mph 1019.6mb 60f 59f
7:00pm 0.3ft 2s  -  2 mph 1019.5mb 60f 59f
6:00pm 0.3ft 3s  -  2 mph 1019.2mb 60f 59f
5:00pm 0.3ft 3s  -  0 mph 1019.6mb 60f 60f
4:00pm  -  2s  -  mph 1019.8mb 60f 60f
3:00pm  -  2s 2 2 mph 1019.7mb 60f 60f
2:00pm  -  3s 2 2 mph 1019.7mb 59f 59f
1:00pm  -  2s 2 2 mph 1019.6mb 58f 57f
12:00pm 0.3ft 3s 4 4 mph 1019.4mb 58f 56f
11:00am 0.3ft 2s 2 2 mph 1019.2mb 58f 56f
10:00am 0.3ft 2s 4 4 mph 1019.1mb 58f 55f
9:00am 0.3ft 2s 4 4 mph 1018.9mb 58f 55f
8:00am 0.3ft 2s 9 11 mph 1018.6mb 58f 55f
7:00am 0.3ft 2s 7 9 mph 1018.1mb 58f 55f
6:00am 0.3ft 2s 4 7 mph 1017.4mb 58f 56f
5:00am 0.3ft 3s 4 4 mph 1016.8mb 58f 56f
4:00am 0.3ft 3s 4 4 mph 1016.9mb 58f 57f
3:00am 0.3ft 3s 4 4 mph 1016.9mb 58f 57f
2:00am 0.3ft 2s  -  2 mph 1017mb 57f 57f
1:00am 0.7ft 3s 4 7 mph 1016.6mb 57f 58f
12:00am 0.7ft 3s 9 11 mph 1016.3mb 58f 58f
Fri 09/22 11:00pm 0.7ft 2s 9 11 mph 1016mb 58f 58f
10:00pm 0.7ft 2s 11 13 mph 1015.7mb 58f 59f
9:00pm 0.7ft 2s 11 13 mph 1015.7mb 58f 60f
8:00pm 0.3ft 2s 11 13 mph 1015.4mb 59f 61f
7:00pm 0.3ft 4s 9 11 mph 1015.5mb 59f 61f
6:00pm 0.3ft 4s 2 4 mph 1015.8mb 60f 62f
5:00pm  -  2s 4 4 mph 1015.9mb 60f 61f
4:00pm 0.3ft 2s 4 4 mph 1016.3mb 59f 61f
3:00pm  -  3s 4 4 mph 1016.7mb 60f 59f
2:00pm  -  2s 4 4 mph 1017.3mb 60f 58f
1:00pm 0.3ft 3s 2 2 mph 1017.8mb 58f 58f
12:00pm 0.3ft 2s 2 2 mph 1018.3mb 58f 56f
11:00am 0.3ft 2s 7 9 mph 1018.7mb 57f 55f
10:00am 0.3ft 2s 4 4 mph 1018.4mb 57f 54f
9:00am 0.3ft 2s 9 11 mph 1018.4mb 57f 53f
8:00am 0.7ft 2s 9 9 mph 1018.4mb 57f 54f
7:00am 0.7ft 2s 9 11 mph 1017.7mb 57f 54f
6:00am 1ft 2s 9 11 mph 1017.4mb 57f 55f
5:00am 0.7ft 2s 11 13 mph 1017.5mb 58f 56f
4:00am 0.7ft 2s 9 11 mph 1017.4mb 58f 56f
3:00am 0.3ft 2s 11 11 mph 1017.5mb 58f 57f
2:00am 0.3ft 2s 11 13 mph 1017.5mb 58f 58f
1:00am 0.3ft 2s 9 9 mph 1017.1mb 58f 58f
12:00am 0.3ft 2s 4 4 mph 1016.8mb 59f 57f
Thu 09/21 11:00pm 0.3ft 2s 2 4 mph 1016.5mb 59f 57f
10:00pm 0.3ft 2s 4 4 mph 1016mb 59f 58f
9:00pm 0.3ft 2s  -  2 mph 1015.4mb 59f 58f
8:00pm 0.3ft 2s 2 4 mph 1014.8mb 59f 59f
7:00pm  -  2s 2 4 mph 1014.6mb 58f 58f
6:00pm  -  2s 4 4 mph 1014.1mb 59f 59f
5:00pm  -  2s 4 7 mph 1014.3mb 59f 58f
4:00pm 0.3ft 3s 4 7 mph 1014.3mb 60f 58f
3:00pm  -  2s 7 7 mph 1014.1mb 59f 58f
2:00pm  -  2s 4 4 mph 1014.3mb 60f 58f
1:00pm 0.3ft 2s 4 7 mph 1014.7mb 59f 57f
12:00pm 0.3ft 2s 2 2 mph 1014.8mb 57f 56f
9:00am 0.3ft 2s 7 9 mph 1014mb 58f 55f
8:00am 0.3ft 2s 2 4 mph 1013.6mb 57f 56f
7:00am 0.7ft 2s 4 4 mph 1012.9mb 57f 55f
6:00am 0.7ft 3s 4 4 mph 1012.2mb 57f 55f
5:00am 1ft 3s 11 13 mph 1011.5mb 57f 55f
4:00am 1.3ft 3s 9 11 mph 1011.1mb 57f 56f
3:00am 1.3ft 3s 9 11 mph 1010.7mb 57f 56f
2:00am 1ft 2s 11 13 mph 1010.3mb 57f 56f
1:00am 0.7ft 2s 13 16 mph 1009.7mb 57f 56f
12:00am 0.7ft 2s 9 11 mph 1009.6mb 57f 56f
Wed 09/20 11:00pm 1ft 2s 13 18 mph 1008.7mb 57f 57f
10:00pm 1.3ft 3s 13 18 mph 1008.4mb 58f 57f
9:00pm 1.3ft 3s 13 18 mph 1008.1mb 58f 58f
8:00pm 0.7ft 2s 16 18 mph 1007.5mb 58f 59f
7:00pm 0.3ft 2s 2 7 mph 1007mb 58f 58f
6:00pm 0.7ft 2s 2 4 mph 1006.7mb 58f 58f
5:00pm 0.3ft 3s 4 4 mph 1006.6mb 59f 58f
4:00pm 0.7ft 3s 4 7 mph 1006.6mb 59f 58f
3:00pm 0.3ft 2s 7 9 mph 1006.8mb 58f 57f
2:00pm 0.3ft 2s  -  2 mph 1006.8mb 58f 57f
1:00pm 0.7ft 2s 4 4 mph 1007mb 57f 54f
12:00pm 0.7ft 2s 9 11 mph 1006.8mb 56f 54f
11:00am 0.7ft 3s 11 13 mph 1006.5mb 56f 53f
10:00am 1ft 3s 9 11 mph 1006mb 56f 52f